createdAt,value
2019-05-23T00:00:30.435Z,9.20
2019-05-23T00:01:30.404Z,10.00
2019-05-23T00:02:30.375Z,9.20
2019-05-23T00:03:30.345Z,9.60
2019-05-23T00:04:30.316Z,8.80
2019-05-23T00:05:30.286Z,9.20
2019-05-23T00:06:30.256Z,9.60
2019-05-23T00:07:30.228Z,10.40
2019-05-23T00:08:30.199Z,10.00
2019-05-23T00:09:30.173Z,9.30
2019-05-23T00:10:30.138Z,9.60
2019-05-23T00:11:30.109Z,9.10
2019-05-23T00:12:30.079Z,9.70
2019-05-23T00:13:30.049Z,10.50
2019-05-23T00:14:30.021Z,11.00
2019-05-23T00:15:29.992Z,8.60
2019-05-23T00:16:29.962Z,9.00
2019-05-23T00:17:29.932Z,8.80
2019-05-23T00:18:29.901Z,10.40
2019-05-23T00:19:29.888Z,9.40
2019-05-23T00:20:29.842Z,9.50
2019-05-23T00:21:29.815Z,10.90
2019-05-23T00:22:29.785Z,12.00
2019-05-23T00:23:29.755Z,10.30
2019-05-23T00:24:29.725Z,9.30
2019-05-23T00:25:29.711Z,10.40
2019-05-23T00:26:29.665Z,10.50
2019-05-23T00:27:29.637Z,9.70
2019-05-23T00:28:29.607Z,10.10
2019-05-23T00:29:29.577Z,10.10
2019-05-23T00:30:29.548Z,10.20
2019-05-23T00:31:29.521Z,10.70
2019-05-23T00:32:29.488Z,10.00
2019-05-23T00:33:29.458Z,10.40
2019-05-23T00:34:29.449Z,9.90
2019-05-23T00:35:29.398Z,10.30
2019-05-23T00:36:29.369Z,10.70
2019-05-23T00:37:29.342Z,10.30
2019-05-23T00:38:29.309Z,11.70
2019-05-23T00:39:29.282Z,11.40
2019-05-23T00:40:29.250Z,11.90
2019-05-23T00:41:29.221Z,13.50
2019-05-23T00:42:29.189Z,12.70
2019-05-23T00:43:29.161Z,12.60
2019-05-23T00:44:29.132Z,13.00
2019-05-23T00:45:29.113Z,13.10
2019-05-23T00:46:29.080Z,13.00
2019-05-23T00:47:29.072Z,12.90
2019-05-23T00:48:29.018Z,12.30
2019-05-23T00:49:29.017Z,11.30
2019-05-23T00:50:28.951Z,12.50
2019-05-23T00:51:28.923Z,12.70
2019-05-23T00:52:28.897Z,12.90
2019-05-23T00:53:28.863Z,11.60
2019-05-23T00:54:28.833Z,12.10
2019-05-23T00:55:29.013Z,13.30
2019-05-23T00:56:28.772Z,13.90
2019-05-23T00:57:28.743Z,13.30
2019-05-23T00:58:28.713Z,13.00
2019-05-23T00:59:28.684Z,12.30
2019-05-23T01:00:28.656Z,13.30
2019-05-23T01:01:28.624Z,13.00
2019-05-23T01:02:28.595Z,13.20
2019-05-23T01:03:28.580Z,13.10
2019-05-23T01:04:28.533Z,13.30
2019-05-23T01:05:28.505Z,12.60
2019-05-23T01:06:28.478Z,13.40
2019-05-23T01:07:28.447Z,14.10
2019-05-23T01:08:28.416Z,13.40
2019-05-23T01:09:28.388Z,13.40
2019-05-23T01:10:28.354Z,14.50
2019-05-23T01:11:28.324Z,16.20
2019-05-23T01:12:28.299Z,14.30
2019-05-23T01:13:28.265Z,13.70
2019-05-23T01:14:28.242Z,13.70
2019-05-23T01:15:28.204Z,13.20
2019-05-23T01:16:28.173Z,13.50
2019-05-23T01:17:28.144Z,12.90
2019-05-23T01:18:28.112Z,13.20
2019-05-23T01:19:28.083Z,12.80
2019-05-23T01:20:28.053Z,12.50
2019-05-23T01:21:28.027Z,13.90
2019-05-23T01:22:27.992Z,12.70
2019-05-23T01:23:27.967Z,12.70
2019-05-23T01:24:27.933Z,12.60
2019-05-23T01:25:27.903Z,12.70
2019-05-23T01:26:27.873Z,13.00
2019-05-23T01:27:27.910Z,12.40
2019-05-23T01:28:27.814Z,12.60
2019-05-23T01:29:37.129Z,13.20
2019-05-23T01:30:27.750Z,13.00
2019-05-23T01:31:27.742Z,13.10
2019-05-23T01:32:27.710Z,13.30
2019-05-23T01:33:27.663Z,13.00
2019-05-23T01:34:27.632Z,12.80
2019-05-23T01:35:27.601Z,13.40
2019-05-23T01:36:27.571Z,13.80
2019-05-23T01:37:27.539Z,12.00
2019-05-23T01:38:27.511Z,11.90
2019-05-23T01:39:27.479Z,11.50
2019-05-23T01:40:27.451Z,12.20
2019-05-23T01:41:27.426Z,13.70
2019-05-23T01:42:27.391Z,13.00
2019-05-23T01:43:27.359Z,13.20
2019-05-23T01:44:27.329Z,14.30
2019-05-23T01:45:27.298Z,12.40
2019-05-23T01:46:27.269Z,11.20
2019-05-23T01:47:27.237Z,13.10
2019-05-23T01:48:27.207Z,12.10
2019-05-23T01:49:27.181Z,13.30
2019-05-23T01:50:27.154Z,13.50
2019-05-23T01:51:27.117Z,12.90
2019-05-23T01:52:27.092Z,13.60
2019-05-23T01:53:27.056Z,13.60
2019-05-23T01:54:27.024Z,13.70
2019-05-23T01:55:26.995Z,12.80
2019-05-23T01:56:26.963Z,13.50
2019-05-23T01:57:26.934Z,13.30
2019-05-23T01:58:26.902Z,12.50
2019-05-23T01:59:26.871Z,13.20
2019-05-23T02:00:26.843Z,12.70
2019-05-23T02:01:26.811Z,12.40
2019-05-23T02:02:26.782Z,12.60
2019-05-23T02:03:26.749Z,13.30
2019-05-23T02:04:26.733Z,13.40
2019-05-23T02:05:26.690Z,13.10
2019-05-23T02:06:26.662Z,13.50
2019-05-23T02:07:26.639Z,14.20
2019-05-23T02:08:26.600Z,12.70
2019-05-23T02:09:26.572Z,15.00
2019-05-23T02:10:26.537Z,12.60
2019-05-23T02:11:26.506Z,12.90
2019-05-23T02:12:26.478Z,14.00
2019-05-23T02:13:26.446Z,12.30
2019-05-23T02:14:26.415Z,13.20
2019-05-23T02:15:26.383Z,14.30
2019-05-23T02:16:26.354Z,13.70
2019-05-23T02:17:26.327Z,12.80
2019-05-23T02:18:26.292Z,13.80
2019-05-23T02:19:26.261Z,13.90
2019-05-23T02:20:26.233Z,13.40
2019-05-23T02:21:26.203Z,13.30
2019-05-23T02:22:26.172Z,13.70
2019-05-23T02:23:26.142Z,12.80
2019-05-23T02:24:26.119Z,12.60
2019-05-23T02:25:26.098Z,14.40
2019-05-23T02:26:26.048Z,13.40
2019-05-23T02:27:26.019Z,13.00
2019-05-23T02:28:25.994Z,15.00
2019-05-23T02:29:26.101Z,13.50
2019-05-23T02:30:35.750Z,14.20
2019-05-23T02:31:25.894Z,12.80
2019-05-23T02:32:25.865Z,13.30
2019-05-23T02:33:25.832Z,12.70
2019-05-23T02:34:25.803Z,14.50
2019-05-23T02:35:25.772Z,13.40
2019-05-23T02:36:25.742Z,14.70
2019-05-23T02:37:25.712Z,13.90
2019-05-23T02:38:25.683Z,12.60
2019-05-23T02:39:25.650Z,12.50
2019-05-23T02:40:25.619Z,13.30
2019-05-23T02:41:25.604Z,13.30
2019-05-23T02:42:25.555Z,14.80
2019-05-23T02:43:25.527Z,15.10
2019-05-23T02:44:25.538Z,14.20
2019-05-23T02:45:25.465Z,14.70
2019-05-23T02:46:25.451Z,13.10
2019-05-23T02:47:25.403Z,12.90
2019-05-23T02:48:25.376Z,12.60
2019-05-23T02:49:25.423Z,12.30
2019-05-23T02:50:25.403Z,12.00
2019-05-23T02:51:25.280Z,12.70
2019-05-23T02:52:25.247Z,12.40
2019-05-23T02:53:25.216Z,13.10
2019-05-23T02:54:25.187Z,13.50
2019-05-23T02:55:25.153Z,13.20
2019-05-23T02:56:25.122Z,13.20
2019-05-23T02:57:25.092Z,13.20
2019-05-23T02:58:25.062Z,12.40
2019-05-23T02:59:25.031Z,12.00
2019-05-23T03:00:24.999Z,13.00
2019-05-23T03:01:25.042Z,13.50
2019-05-23T03:02:24.938Z,13.50
2019-05-23T03:03:24.906Z,14.20
2019-05-23T03:04:24.881Z,13.20
2019-05-23T03:05:24.844Z,15.20
2019-05-23T03:06:24.814Z,15.10
2019-05-23T03:07:24.782Z,15.10
2019-05-23T03:08:24.753Z,14.90
2019-05-23T03:09:24.722Z,14.20
2019-05-23T03:10:24.700Z,13.20
2019-05-23T03:11:24.659Z,13.60
2019-05-23T03:12:25.448Z,13.70
2019-05-23T03:13:24.596Z,14.00
2019-05-23T03:14:24.564Z,13.70
2019-05-23T03:15:24.536Z,13.20
2019-05-23T03:16:24.517Z,13.70
2019-05-23T03:17:24.476Z,12.70
2019-05-23T03:18:24.439Z,13.30
2019-05-23T03:19:24.413Z,14.60
2019-05-23T03:20:24.378Z,14.60
2019-05-23T03:21:24.357Z,14.10
2019-05-23T03:22:24.321Z,14.50
2019-05-23T03:23:24.286Z,14.30
2019-05-23T03:24:24.268Z,14.30
2019-05-23T03:25:24.226Z,14.60
2019-05-23T03:26:24.194Z,14.90
2019-05-23T03:27:24.167Z,15.00
2019-05-23T03:28:24.130Z,14.00
2019-05-23T03:29:24.100Z,15.00
2019-05-23T03:30:24.070Z,15.30
2019-05-23T03:31:30.763Z,15.00
2019-05-23T03:32:24.009Z,14.30
2019-05-23T03:33:23.978Z,15.10
2019-05-23T03:34:23.949Z,15.10
2019-05-23T03:35:23.915Z,15.70
2019-05-23T03:36:23.884Z,15.30
2019-05-23T03:37:23.857Z,16.20
2019-05-23T03:38:23.824Z,15.00
2019-05-23T03:39:23.797Z,15.40
2019-05-23T03:40:23.766Z,15.40
2019-05-23T03:41:23.730Z,14.90
2019-05-23T03:42:23.702Z,15.20
2019-05-23T03:43:23.668Z,14.40
2019-05-23T03:44:23.640Z,14.90
2019-05-23T03:45:23.609Z,14.60
2019-05-23T03:46:23.575Z,14.30
2019-05-23T03:47:23.544Z,14.30
2019-05-23T03:48:23.515Z,14.70
2019-05-23T03:49:23.483Z,14.90
2019-05-23T03:50:23.451Z,15.60
2019-05-23T03:51:23.426Z,15.10
2019-05-23T03:52:23.389Z,13.00
2019-05-23T03:53:23.366Z,13.00
2019-05-23T03:54:23.328Z,13.90
2019-05-23T03:55:23.298Z,13.40
2019-05-23T03:56:23.268Z,13.70
2019-05-23T03:57:25.717Z,13.60
2019-05-23T03:58:23.210Z,12.90
2019-05-23T03:59:23.176Z,13.90
2019-05-23T04:00:23.153Z,13.70
2019-05-23T04:01:23.116Z,12.60
2019-05-23T04:02:23.086Z,11.40
2019-05-23T04:03:23.053Z,12.00
2019-05-23T04:04:23.023Z,12.70
2019-05-23T04:05:22.993Z,12.20
2019-05-23T04:06:22.963Z,10.80
2019-05-23T04:07:22.976Z,11.90
2019-05-23T04:08:22.904Z,11.90
2019-05-23T04:09:22.871Z,11.10
2019-05-23T04:10:22.843Z,11.40
2019-05-23T04:11:22.810Z,12.80
2019-05-23T04:12:22.783Z,11.40
2019-05-23T04:13:22.752Z,11.90
2019-05-23T04:14:22.720Z,11.40
2019-05-23T04:15:22.695Z,11.50
2019-05-23T04:16:22.659Z,12.20
2019-05-23T04:17:22.631Z,11.40
2019-05-23T04:18:22.601Z,11.40
2019-05-23T04:19:22.575Z,11.40
2019-05-23T04:20:22.544Z,11.00
2019-05-23T04:21:22.511Z,10.90
2019-05-23T04:22:22.484Z,11.60
2019-05-23T04:23:22.531Z,11.40
2019-05-23T04:24:22.418Z,11.20
2019-05-23T04:25:22.389Z,11.30
2019-05-23T04:26:22.360Z,10.40
2019-05-23T04:27:22.333Z,11.00
2019-05-23T04:28:22.299Z,11.50
2019-05-23T04:29:22.275Z,11.40
2019-05-23T04:30:22.241Z,10.80
2019-05-23T04:31:22.244Z,11.20
2019-05-23T04:32:22.181Z,10.60
2019-05-23T04:33:22.150Z,10.40
2019-05-23T04:34:22.120Z,10.30
2019-05-23T04:35:22.101Z,11.10
2019-05-23T04:36:22.066Z,11.10
2019-05-23T04:37:22.045Z,11.30
2019-05-23T04:38:22.014Z,11.60
2019-05-23T04:39:21.978Z,11.80
2019-05-23T04:40:21.952Z,12.20
2019-05-23T04:41:21.917Z,13.10
2019-05-23T04:42:21.888Z,13.80
2019-05-23T04:43:21.859Z,15.60
2019-05-23T04:44:21.830Z,13.50
2019-05-23T04:45:21.799Z,13.80
2019-05-23T04:46:21.777Z,14.20
2019-05-23T04:47:21.742Z,15.60
2019-05-23T04:48:21.713Z,17.10
2019-05-23T04:49:21.695Z,16.30
2019-05-23T04:50:21.656Z,16.30
2019-05-23T04:51:21.627Z,18.20
2019-05-23T04:52:21.597Z,19.40
2019-05-23T04:53:21.570Z,22.80
2019-05-23T04:54:21.540Z,21.80
2019-05-23T04:55:21.514Z,20.90
2019-05-23T04:56:21.485Z,21.40
2019-05-23T04:57:21.459Z,22.00
2019-05-23T04:58:21.428Z,22.10
2019-05-23T04:59:21.399Z,23.60
2019-05-23T05:00:21.370Z,21.60
2019-05-23T05:01:21.346Z,21.80
2019-05-23T05:02:26.464Z,20.40
2019-05-23T05:03:21.307Z,20.80
2019-05-23T05:04:21.261Z,20.00
2019-05-23T05:05:21.233Z,21.80
2019-05-23T05:06:21.207Z,21.70
2019-05-23T05:07:21.182Z,22.70
2019-05-23T05:08:21.151Z,23.30
2019-05-23T05:09:21.124Z,22.40
2019-05-23T05:10:21.093Z,22.00
2019-05-23T05:11:21.069Z,24.00
2019-05-23T05:12:21.042Z,22.50
2019-05-23T05:13:21.013Z,21.30
2019-05-23T05:14:20.990Z,20.30
2019-05-23T05:15:20.961Z,21.50
2019-05-23T05:16:20.933Z,20.70
2019-05-23T05:17:20.918Z,20.80
2019-05-23T05:18:20.878Z,20.70
2019-05-23T05:19:20.851Z,18.90
2019-05-23T05:20:20.825Z,20.70
2019-05-23T05:21:20.802Z,18.50
2019-05-23T05:22:20.773Z,19.20
2019-05-23T05:23:20.747Z,20.00
2019-05-23T05:24:20.721Z,18.10
2019-05-23T05:25:20.712Z,18.70
2019-05-23T05:26:20.678Z,18.10
2019-05-23T05:27:20.644Z,17.40
2019-05-23T05:28:20.617Z,16.90
2019-05-23T05:29:20.592Z,15.60
2019-05-23T05:30:20.569Z,14.80
2019-05-23T05:31:20.542Z,15.10
2019-05-23T05:32:20.521Z,14.50
2019-05-23T05:33:20.496Z,13.80
2019-05-23T05:34:20.475Z,12.20
2019-05-23T05:35:20.457Z,12.80
2019-05-23T05:36:20.427Z,11.80
2019-05-23T05:37:20.402Z,12.60
2019-05-23T05:38:20.377Z,11.60
2019-05-23T05:39:20.358Z,11.10
2019-05-23T05:40:20.342Z,10.20
2019-05-23T05:41:20.343Z,10.10
2019-05-23T05:42:20.291Z,10.10
2019-05-23T05:43:20.269Z,10.40
2019-05-23T05:44:20.274Z,9.40
2019-05-23T05:45:20.232Z,9.40
2019-05-23T05:46:20.205Z,9.30
2019-05-23T05:47:20.184Z,9.60
2019-05-23T05:48:20.161Z,9.40
2019-05-23T05:49:20.144Z,8.90
2019-05-23T05:50:20.119Z,8.10
2019-05-23T05:51:20.103Z,7.90
2019-05-23T05:52:20.076Z,7.90
2019-05-23T05:53:20.055Z,7.30
2019-05-23T05:54:20.033Z,7.20
2019-05-23T05:55:20.012Z,7.70
2019-05-23T05:56:19.994Z,7.90
2019-05-23T05:57:19.972Z,7.70
2019-05-23T05:58:19.949Z,7.60
2019-05-23T05:59:19.928Z,7.40
2019-05-23T06:00:19.916Z,7.50
2019-05-23T06:01:33.303Z,7.70
2019-05-23T06:02:19.912Z,7.60
2019-05-23T06:03:19.849Z,7.90
2019-05-23T06:04:19.822Z,7.40
2019-05-23T06:05:19.811Z,6.90
2019-05-23T06:06:19.784Z,7.00
2019-05-23T06:07:19.761Z,7.00
2019-05-23T06:08:19.737Z,6.80
2019-05-23T06:09:19.718Z,7.70
2019-05-23T06:10:19.698Z,7.30
2019-05-23T06:11:19.675Z,7.20
2019-05-23T06:12:19.653Z,7.60
2019-05-23T06:13:19.633Z,7.20
2019-05-23T06:14:19.625Z,7.30
2019-05-23T06:15:19.591Z,7.70
2019-05-23T06:16:19.574Z,7.80
2019-05-23T06:17:19.553Z,7.80
2019-05-23T06:18:19.526Z,6.20
2019-05-23T06:19:19.508Z,6.90
2019-05-23T06:20:19.487Z,6.60
2019-05-23T06:21:19.467Z,6.40
2019-05-23T06:22:19.446Z,6.70
2019-05-23T06:23:19.427Z,6.90
2019-05-23T06:24:37.802Z,7.40
2019-05-23T06:25:19.389Z,7.90
2019-05-23T06:26:19.370Z,7.60
2019-05-23T06:27:19.347Z,7.80
2019-05-23T06:28:19.327Z,7.50
2019-05-23T06:29:19.316Z,8.20
2019-05-23T06:30:19.285Z,7.80
2019-05-23T06:31:19.269Z,7.40
2019-05-23T06:32:19.247Z,7.80
2019-05-23T06:33:23.990Z,8.00
2019-05-23T06:34:19.218Z,7.60
2019-05-23T06:35:19.190Z,7.50
2019-05-23T06:36:19.169Z,8.10
2019-05-23T06:37:19.152Z,8.40
2019-05-23T06:38:19.132Z,9.00
2019-05-23T06:39:19.115Z,8.30
2019-05-23T06:40:19.163Z,9.50
2019-05-23T06:41:19.076Z,9.70
2019-05-23T06:42:19.064Z,9.00
2019-05-23T06:43:19.039Z,9.30
2019-05-23T06:44:19.059Z,9.00
2019-05-23T06:45:19.008Z,9.20
2019-05-23T06:46:18.991Z,8.90
2019-05-23T06:47:18.967Z,8.90
2019-05-23T06:48:18.952Z,8.70
2019-05-23T06:49:18.931Z,9.00
2019-05-23T06:50:18.911Z,7.90
2019-05-23T06:51:18.895Z,9.30
2019-05-23T06:52:18.903Z,8.10
2019-05-23T06:53:18.864Z,8.80
2019-05-23T06:54:18.839Z,9.00
2019-05-23T06:55:18.823Z,8.80
2019-05-23T06:56:18.811Z,9.00
2019-05-23T06:57:18.785Z,8.20
2019-05-23T06:58:18.815Z,8.30
2019-05-23T06:59:18.751Z,8.40
2019-05-23T07:00:18.734Z,8.20
2019-05-23T07:01:18.713Z,9.10
2019-05-23T07:02:18.697Z,8.60
2019-05-23T07:03:18.681Z,8.20
2019-05-23T07:04:18.656Z,8.10
2019-05-23T07:05:18.679Z,8.40
2019-05-23T07:06:18.621Z,8.30
2019-05-23T07:07:18.601Z,8.30
2019-05-23T07:08:18.583Z,8.20
2019-05-23T07:09:18.568Z,8.50
2019-05-23T07:10:18.571Z,7.90
2019-05-23T07:11:18.537Z,7.30
2019-05-23T07:12:18.517Z,7.60
2019-05-23T07:13:18.504Z,8.30
2019-05-23T07:14:18.537Z,8.10
2019-05-23T07:15:18.447Z,8.10
2019-05-23T07:16:18.431Z,7.50
2019-05-23T07:17:18.411Z,7.50
2019-05-23T07:18:18.392Z,7.60
2019-05-23T07:19:18.371Z,7.70
2019-05-23T07:20:18.361Z,7.00
2019-05-23T07:21:18.332Z,7.50
2019-05-23T07:22:19.557Z,7.30
2019-05-23T07:23:18.450Z,7.20
2019-05-23T07:24:18.272Z,6.50
2019-05-23T07:25:18.254Z,6.30
2019-05-23T07:26:18.236Z,6.40
2019-05-23T07:27:18.217Z,5.90
2019-05-23T07:28:18.196Z,6.50
2019-05-23T07:29:18.179Z,6.40
2019-05-23T07:30:18.159Z,6.00
2019-05-23T07:31:18.140Z,6.60
2019-05-23T07:32:18.133Z,6.80
2019-05-23T07:33:18.113Z,6.50
2019-05-23T07:34:18.089Z,6.20
2019-05-23T07:35:18.080Z,7.10
2019-05-23T07:36:18.053Z,5.80
2019-05-23T07:37:18.038Z,5.90
2019-05-23T07:38:18.030Z,6.40
2019-05-23T07:39:18.042Z,5.70
2019-05-23T07:40:17.993Z,6.00
2019-05-23T07:41:17.971Z,6.20
2019-05-23T07:42:17.951Z,5.70
2019-05-23T07:43:17.934Z,5.60
2019-05-23T07:44:18.015Z,5.80
2019-05-23T07:45:17.902Z,5.80
2019-05-23T07:46:17.884Z,5.80
2019-05-23T07:47:17.869Z,5.60
2019-05-23T07:48:17.858Z,5.10
2019-05-23T07:49:17.835Z,5.40
2019-05-23T07:50:17.817Z,6.60
2019-05-23T07:51:17.816Z,5.70
2019-05-23T07:52:17.789Z,5.30
2019-05-23T07:53:17.779Z,6.00
2019-05-23T07:54:17.751Z,5.80
2019-05-23T07:55:17.736Z,5.20
2019-05-23T07:56:17.721Z,5.30
2019-05-23T07:57:17.702Z,5.50
2019-05-23T07:58:17.689Z,5.40
2019-05-23T07:59:17.669Z,4.50
2019-05-23T08:00:17.651Z,4.30
2019-05-23T08:01:17.635Z,4.60
2019-05-23T08:02:17.619Z,5.10
2019-05-23T08:03:17.603Z,4.90
2019-05-23T08:04:22.073Z,4.60
2019-05-23T08:05:17.569Z,5.10
2019-05-23T08:06:17.557Z,5.30
2019-05-23T08:07:17.542Z,5.50
2019-05-23T08:08:17.538Z,5.40
2019-05-23T08:09:17.505Z,5.20
2019-05-23T08:10:32.547Z,4.70
2019-05-23T08:11:17.473Z,4.90
2019-05-23T08:12:17.458Z,5.10
2019-05-23T08:13:17.446Z,4.40
2019-05-23T08:14:17.428Z,4.40
2019-05-23T08:15:17.413Z,4.40
2019-05-23T08:16:17.395Z,4.30
2019-05-23T08:17:17.380Z,4.60
2019-05-23T08:18:17.364Z,4.50
2019-05-23T08:19:19.622Z,4.20
2019-05-23T08:20:17.331Z,3.90
2019-05-23T08:21:17.317Z,4.40
2019-05-23T08:22:17.302Z,4.50
2019-05-23T08:23:17.287Z,4.60
2019-05-23T08:24:17.271Z,4.80
2019-05-23T08:25:17.257Z,4.40
2019-05-23T08:26:17.239Z,3.80
2019-05-23T08:27:17.224Z,4.00
2019-05-23T08:28:17.208Z,4.20
2019-05-23T08:29:26.443Z,4.30
2019-05-23T08:30:17.177Z,4.00
2019-05-23T08:31:17.162Z,3.80
2019-05-23T08:32:17.145Z,4.30
2019-05-23T08:33:17.200Z,4.40
2019-05-23T08:34:17.131Z,4.30
2019-05-23T08:35:18.161Z,4.60
2019-05-23T08:36:17.086Z,4.50
2019-05-23T08:37:17.074Z,3.70
2019-05-23T08:38:17.056Z,4.50
2019-05-23T08:39:17.104Z,4.30
2019-05-23T08:40:17.038Z,4.00
2019-05-23T08:41:17.010Z,4.20
2019-05-23T08:42:16.994Z,4.10
2019-05-23T08:43:16.979Z,3.60
2019-05-23T08:44:16.963Z,3.80
2019-05-23T08:45:16.955Z,4.40
2019-05-23T08:46:16.932Z,3.70
2019-05-23T08:47:16.918Z,3.90
2019-05-23T08:48:16.901Z,4.20
2019-05-23T08:49:16.886Z,4.80
2019-05-23T08:50:16.870Z,4.80
2019-05-23T08:51:16.856Z,5.10
2019-05-23T08:52:16.844Z,5.30
2019-05-23T08:53:16.823Z,5.50
2019-05-23T08:54:16.807Z,5.10
2019-05-23T08:55:16.843Z,4.80
2019-05-23T08:56:19.575Z,5.20
2019-05-23T08:57:16.768Z,5.20
2019-05-23T08:58:17.371Z,4.50
2019-05-23T08:59:16.734Z,5.20
2019-05-23T09:00:16.716Z,5.20
2019-05-23T09:01:16.735Z,5.10
2019-05-23T09:02:16.688Z,4.50
2019-05-23T09:03:16.672Z,5.00
2019-05-23T09:04:16.660Z,5.80
2019-05-23T09:05:16.646Z,5.10
2019-05-23T09:06:16.626Z,5.30
2019-05-23T09:07:16.642Z,5.10
2019-05-23T09:08:17.354Z,5.70
2019-05-23T09:09:29.322Z,5.60
2019-05-23T09:10:16.565Z,5.10
2019-05-23T09:11:16.554Z,4.70
2019-05-23T09:12:16.578Z,5.50
2019-05-23T09:13:16.523Z,5.50
2019-05-23T09:14:16.507Z,5.20
2019-05-23T09:15:16.493Z,5.10
2019-05-23T09:16:16.477Z,5.30
2019-05-23T09:17:16.462Z,5.70
2019-05-23T09:18:16.448Z,5.70
2019-05-23T09:19:16.472Z,5.40
2019-05-23T09:20:16.417Z,6.00
2019-05-23T09:21:16.403Z,5.90
2019-05-23T09:22:16.386Z,5.80
2019-05-23T09:23:16.373Z,5.10
2019-05-23T09:24:16.361Z,5.20
2019-05-23T09:25:16.342Z,5.40
2019-05-23T09:26:16.328Z,5.40
2019-05-23T09:27:16.316Z,5.40
2019-05-23T09:28:16.299Z,5.30
2019-05-23T09:29:16.284Z,6.00
2019-05-23T09:30:16.267Z,5.50
2019-05-23T09:31:16.256Z,5.40
2019-05-23T09:32:16.237Z,5.50
2019-05-23T09:33:16.224Z,5.90
2019-05-23T09:34:16.216Z,5.80
2019-05-23T09:35:20.768Z,5.20
2019-05-23T09:36:16.230Z,5.20
2019-05-23T09:37:16.165Z,5.40
2019-05-23T09:38:16.155Z,5.80
2019-05-23T09:39:16.144Z,5.50
2019-05-23T09:40:16.129Z,5.40
2019-05-23T09:41:16.125Z,5.20
2019-05-23T09:42:16.092Z,5.80
2019-05-23T09:43:16.157Z,5.10
2019-05-23T09:44:16.063Z,5.70
2019-05-23T09:45:16.049Z,6.00
2019-05-23T09:46:16.035Z,5.30
2019-05-23T09:47:16.024Z,5.40
2019-05-23T09:48:16.005Z,5.40
2019-05-23T09:49:15.993Z,5.90
2019-05-23T09:50:15.976Z,5.30
2019-05-23T09:51:16.026Z,5.80
2019-05-23T09:52:16.145Z,5.90
2019-05-23T09:53:15.936Z,5.80
2019-05-23T09:54:15.918Z,6.00
2019-05-23T09:55:15.902Z,5.50
2019-05-23T09:56:15.894Z,5.20
2019-05-23T09:57:15.875Z,5.90
2019-05-23T09:58:15.862Z,6.00
2019-05-23T09:59:15.849Z,6.10
2019-05-23T10:00:15.838Z,5.80
2019-05-23T10:01:15.817Z,5.60
2019-05-23T10:02:15.801Z,5.20
2019-05-23T10:03:15.786Z,6.20
2019-05-23T10:04:15.773Z,5.60
2019-05-23T10:05:15.756Z,6.00
2019-05-23T10:06:15.750Z,6.00
2019-05-23T10:07:15.726Z,7.10
2019-05-23T10:08:15.719Z,6.90
2019-05-23T10:09:15.697Z,6.50
2019-05-23T10:10:15.691Z,6.80
2019-05-23T10:11:15.672Z,6.80
2019-05-23T10:12:15.655Z,6.30
2019-05-23T10:13:15.639Z,6.30
2019-05-23T10:14:15.622Z,6.40
2019-05-23T10:15:15.615Z,6.30
2019-05-23T10:16:15.602Z,5.70
2019-05-23T10:17:15.580Z,6.20
2019-05-23T10:18:15.566Z,6.80
2019-05-23T10:19:15.549Z,6.30
2019-05-23T10:20:15.543Z,6.90
2019-05-23T10:21:15.519Z,6.70
2019-05-23T10:22:15.507Z,7.00
2019-05-23T10:23:15.489Z,6.10
2019-05-23T10:24:15.475Z,5.70
2019-05-23T10:25:15.461Z,5.70
2019-05-23T10:26:15.445Z,6.10
2019-05-23T10:27:15.429Z,6.90
2019-05-23T10:28:15.416Z,5.70
2019-05-23T10:29:15.403Z,7.30
2019-05-23T10:30:15.383Z,8.00
2019-05-23T10:31:15.370Z,7.30
2019-05-23T10:32:15.356Z,7.80
2019-05-23T10:33:15.344Z,7.20
2019-05-23T10:34:15.369Z,7.10
2019-05-23T10:35:15.311Z,6.90
2019-05-23T10:36:15.296Z,7.30
2019-05-23T10:37:15.280Z,6.10
2019-05-23T10:38:15.266Z,6.50
2019-05-23T10:39:15.252Z,6.20
2019-05-23T10:40:15.236Z,6.50
2019-05-23T10:41:15.222Z,6.00
2019-05-23T10:42:15.205Z,6.90
2019-05-23T10:43:15.192Z,5.60
2019-05-23T10:44:15.177Z,5.80
2019-05-23T10:45:15.165Z,5.80
2019-05-23T10:46:15.148Z,6.70
2019-05-23T10:47:15.136Z,7.00
2019-05-23T10:48:15.120Z,6.70
2019-05-23T10:49:15.106Z,6.60
2019-05-23T10:50:15.091Z,6.80
2019-05-23T10:51:15.076Z,6.00
2019-05-23T10:52:15.063Z,6.30
2019-05-23T10:53:15.049Z,6.00
2019-05-23T10:54:15.032Z,6.60
2019-05-23T10:55:15.017Z,6.50
2019-05-23T10:56:20.042Z,6.00
2019-05-23T10:57:14.988Z,6.70
2019-05-23T10:58:14.978Z,6.10
2019-05-23T10:59:14.967Z,6.20
2019-05-23T11:00:14.946Z,6.40
2019-05-23T11:01:14.933Z,5.80
2019-05-23T11:02:14.916Z,5.40
2019-05-23T11:03:14.903Z,4.70
2019-05-23T11:04:14.954Z,5.50
2019-05-23T11:05:14.884Z,5.00
2019-05-23T11:06:16.784Z,4.80
2019-05-23T11:07:14.846Z,4.70
2019-05-23T11:08:14.835Z,5.00
2019-05-23T11:09:14.827Z,4.20
2019-05-23T11:10:14.798Z,5.00
2019-05-23T11:11:15.176Z,4.70
2019-05-23T11:12:14.770Z,5.30
2019-05-23T11:13:14.754Z,5.00
2019-05-23T11:14:14.749Z,4.50
2019-05-23T11:15:14.725Z,4.50
2019-05-23T11:16:14.712Z,5.90
2019-05-23T11:17:14.696Z,6.20
2019-05-23T11:18:14.685Z,5.80
2019-05-23T11:19:14.667Z,4.80
2019-05-23T11:20:14.656Z,4.80
2019-05-23T11:21:14.642Z,5.10
2019-05-23T11:22:14.623Z,4.60
2019-05-23T11:23:14.607Z,4.10
2019-05-23T11:24:14.641Z,4.30
2019-05-23T11:25:14.586Z,3.80
2019-05-23T11:26:14.569Z,3.80
2019-05-23T11:27:14.575Z,3.70
2019-05-23T11:28:14.544Z,4.00
2019-05-23T11:29:14.523Z,4.20
2019-05-23T11:30:14.508Z,4.10
2019-05-23T11:31:14.492Z,4.20
2019-05-23T11:32:14.538Z,4.00
2019-05-23T11:33:14.463Z,3.90
2019-05-23T11:34:14.446Z,4.20
2019-05-23T11:35:14.433Z,4.20
2019-05-23T11:36:14.419Z,3.80
2019-05-23T11:37:14.408Z,3.20
2019-05-23T11:38:14.389Z,3.10
2019-05-23T11:39:14.376Z,3.10
2019-05-23T11:40:14.405Z,3.90
2019-05-23T11:41:14.348Z,3.40
2019-05-23T11:42:14.335Z,3.20
2019-05-23T11:43:14.318Z,3.50
2019-05-23T11:44:14.304Z,3.10
2019-05-23T11:45:14.291Z,2.90
2019-05-23T11:46:14.274Z,3.00
2019-05-23T11:47:14.263Z,3.20
2019-05-23T11:48:16.171Z,3.00
2019-05-23T11:49:14.234Z,2.80
2019-05-23T11:50:14.220Z,3.10
2019-05-23T11:51:14.209Z,2.90
2019-05-23T11:52:14.543Z,2.90
2019-05-23T11:53:14.178Z,2.90
2019-05-23T11:54:14.166Z,3.50
2019-05-23T11:55:14.151Z,3.40
2019-05-23T11:56:14.133Z,4.30
2019-05-23T11:57:14.118Z,3.50
2019-05-23T11:58:14.104Z,3.80
2019-05-23T11:59:14.094Z,3.50
2019-05-23T12:00:14.076Z,3.30
2019-05-23T12:01:20.545Z,3.50
2019-05-23T12:02:14.045Z,3.60
2019-05-23T12:03:14.032Z,2.90
2019-05-23T12:04:14.018Z,2.80
2019-05-23T12:05:14.005Z,2.80
2019-05-23T12:06:13.989Z,2.80
2019-05-23T12:07:13.974Z,3.20
2019-05-23T12:08:13.959Z,2.90
2019-05-23T12:09:13.947Z,3.00
2019-05-23T12:10:13.932Z,2.90
2019-05-23T12:11:13.974Z,2.70
2019-05-23T12:12:13.901Z,2.90
2019-05-23T12:13:13.887Z,2.50
2019-05-23T12:14:13.872Z,2.30
2019-05-23T12:15:13.860Z,2.60
2019-05-23T12:16:13.841Z,3.20
2019-05-23T12:17:14.170Z,2.80
2019-05-23T12:18:13.812Z,2.90
2019-05-23T12:19:13.800Z,2.80
2019-05-23T12:20:13.781Z,2.40
2019-05-23T12:21:13.769Z,2.60
2019-05-23T12:22:13.754Z,2.60
2019-05-23T12:23:13.737Z,2.70
2019-05-23T12:24:13.721Z,2.80
2019-05-23T12:25:22.205Z,3.20
2019-05-23T12:26:13.693Z,3.10
2019-05-23T12:27:13.680Z,2.90
2019-05-23T12:28:13.703Z,2.50
2019-05-23T12:29:13.650Z,2.60
2019-05-23T12:30:13.636Z,3.30
2019-05-23T12:31:13.628Z,2.90
2019-05-23T12:32:13.616Z,2.90
2019-05-23T12:33:13.630Z,2.80
2019-05-23T12:34:13.578Z,2.40
2019-05-23T12:35:13.576Z,3.30
2019-05-23T12:36:13.553Z,3.00
2019-05-23T12:37:18.857Z,2.80
2019-05-23T12:38:13.544Z,2.40
2019-05-23T12:39:13.507Z,2.50
2019-05-23T12:40:13.495Z,3.20
2019-05-23T12:41:13.484Z,2.70
2019-05-23T12:42:13.468Z,2.70
2019-05-23T12:43:13.448Z,2.60
2019-05-23T12:44:17.128Z,2.70
2019-05-23T12:45:13.446Z,2.50
2019-05-23T12:46:13.451Z,2.60
2019-05-23T12:47:13.390Z,2.50
2019-05-23T12:48:13.374Z,2.10
2019-05-23T12:49:13.359Z,2.40
2019-05-23T12:50:13.347Z,2.40
2019-05-23T12:51:13.333Z,2.70
2019-05-23T12:52:13.314Z,2.20
2019-05-23T12:53:13.303Z,2.40
2019-05-23T12:54:13.302Z,2.20
2019-05-23T12:55:13.275Z,2.60
2019-05-23T12:56:13.280Z,2.50
2019-05-23T12:57:13.243Z,2.20
2019-05-23T12:58:13.228Z,2.10
2019-05-23T12:59:13.218Z,2.00
2019-05-23T13:00:13.198Z,2.50
2019-05-23T13:01:13.197Z,2.30
2019-05-23T13:02:13.169Z,2.60
2019-05-23T13:03:13.155Z,2.30
2019-05-23T13:04:13.141Z,1.90
2019-05-23T13:05:13.131Z,2.30
2019-05-23T13:06:13.112Z,2.40
2019-05-23T13:07:13.093Z,2.20